createdAt,value
2023-04-17T00:00:07.155Z,86.33
2023-04-17T00:03:17.030Z,87.00
2023-04-17T00:06:27.375Z,87.06
2023-04-17T00:09:36.091Z,86.98
2023-04-17T00:12:44.307Z,87.27
2023-04-17T00:15:52.434Z,87.06
2023-04-17T00:19:00.697Z,87.32
2023-04-17T00:22:10.297Z,86.91
2023-04-17T00:25:18.466Z,86.54
2023-04-17T00:28:26.555Z,86.22
2023-04-17T00:31:34.667Z,86.66
2023-04-17T00:34:43.136Z,86.92
2023-04-17T00:37:52.758Z,87.18
2023-04-17T00:41:01.130Z,87.18
2023-04-17T00:44:09.833Z,86.93
2023-04-17T00:47:18.581Z,86.07
2023-04-17T00:50:28.480Z,86.55
2023-04-17T00:53:38.629Z,86.38
2023-04-17T00:56:47.316Z,85.01
2023-04-17T00:59:57.959Z,85.41
2023-04-17T01:03:07.068Z,85.04
2023-04-17T01:06:15.743Z,86.01
2023-04-17T01:09:25.349Z,86.38
2023-04-17T01:12:33.973Z,85.96
2023-04-17T01:15:42.898Z,86.44
2023-04-17T01:18:51.274Z,86.68
2023-04-17T01:22:00.007Z,86.49
2023-04-17T01:25:10.731Z,87.01
2023-04-17T01:28:20.760Z,87.29
2023-04-17T01:31:29.366Z,86.98
2023-04-17T01:34:37.858Z,87.37
2023-04-17T01:37:46.047Z,87.64
2023-04-17T01:40:56.187Z,87.26
2023-04-17T01:44:04.348Z,87.84
2023-04-17T01:47:12.497Z,87.52
2023-04-17T01:50:21.067Z,87.25
2023-04-17T01:53:31.261Z,88.37
2023-04-17T01:56:41.373Z,88.17
2023-04-17T01:59:49.649Z,88.46
2023-04-17T02:02:57.992Z,88.13
2023-04-17T02:06:06.787Z,87.63
2023-04-17T02:09:14.947Z,87.40
2023-04-17T02:12:24.536Z,87.33
2023-04-17T02:15:32.979Z,87.35
2023-04-17T02:18:42.111Z,87.41
2023-04-17T02:21:50.454Z,87.55
2023-04-17T02:24:58.663Z,87.47
2023-04-17T02:28:09.000Z,88.10
2023-04-17T02:31:17.474Z,87.59
2023-04-17T02:34:27.352Z,87.49
2023-04-17T02:37:36.751Z,88.00
2023-04-17T02:40:45.183Z,88.43
2023-04-17T02:43:54.765Z,88.34
2023-04-17T02:47:03.326Z,88.18
2023-04-17T02:50:14.768Z,87.65
2023-04-17T02:53:49.631Z,88.84
2023-04-17T02:56:59.166Z,88.35
2023-04-17T03:00:13.883Z,88.58
2023-04-17T03:03:22.167Z,88.28
2023-04-17T03:06:30.381Z,88.65
2023-04-17T03:09:38.849Z,88.97
2023-04-17T03:12:47.313Z,89.00
2023-04-17T03:15:56.842Z,89.08
2023-04-17T03:19:05.098Z,88.99
2023-04-17T03:22:13.538Z,88.11
2023-04-17T03:25:22.647Z,87.88
2023-04-17T03:28:34.110Z,88.43
2023-04-17T03:31:44.925Z,87.05
2023-04-17T03:34:53.397Z,87.91
2023-04-17T03:38:02.038Z,88.43
2023-04-17T03:41:11.241Z,88.41
2023-04-17T03:44:19.980Z,88.91
2023-04-17T03:47:30.522Z,87.50
2023-04-17T03:50:39.214Z,87.46
2023-04-17T03:53:47.473Z,87.61
2023-04-17T03:56:57.642Z,86.98
2023-04-17T04:00:10.474Z,87.08
2023-04-17T04:03:32.008Z,88.55
2023-04-17T04:06:42.760Z,88.70
2023-04-17T04:09:55.930Z,87.45
2023-04-17T04:13:04.823Z,87.89
2023-04-17T04:16:13.597Z,86.63
2023-04-17T04:19:24.158Z,87.32
2023-04-17T04:22:34.834Z,87.31
2023-04-17T04:25:43.624Z,87.44
2023-04-17T04:29:02.126Z,87.08
2023-04-17T04:32:18.119Z,85.88
2023-04-17T04:35:33.776Z,85.24
2023-04-17T04:38:42.164Z,86.67
2023-04-17T04:42:06.142Z,87.29
2023-04-17T04:45:25.821Z,87.00
2023-04-17T04:48:34.827Z,87.36
2023-04-17T04:51:45.079Z,87.30
2023-04-17T04:54:54.392Z,87.63
2023-04-17T04:58:03.078Z,86.05
2023-04-17T05:01:12.217Z,87.19
2023-04-17T05:04:25.529Z,86.00
2023-04-17T05:07:39.971Z,85.79
2023-04-17T05:10:52.670Z,86.24
2023-04-17T05:14:01.146Z,86.04
2023-04-17T05:17:12.636Z,85.41
2023-04-17T05:20:21.834Z,84.68
2023-04-17T05:23:37.029Z,84.57
2023-04-17T05:26:47.337Z,83.78
2023-04-17T05:29:55.504Z,84.61
2023-04-17T05:33:04.171Z,84.75
2023-04-17T05:36:24.988Z,83.50
2023-04-17T05:39:38.529Z,84.97
2023-04-17T05:42:47.142Z,85.27
2023-04-17T05:45:55.831Z,85.24
2023-04-17T05:49:05.266Z,84.57
2023-04-17T05:52:13.643Z,84.14
2023-04-17T05:55:26.935Z,83.91
2023-04-17T05:58:38.598Z,84.37
2023-04-17T06:01:48.855Z,83.99
2023-04-17T06:05:02.326Z,83.66
2023-04-17T06:08:11.586Z,82.68
2023-04-17T06:11:23.270Z,81.60
2023-04-17T06:14:32.358Z,82.21
2023-04-17T06:17:43.209Z,82.05
2023-04-17T06:20:52.068Z,82.10
2023-04-17T06:24:02.233Z,82.39
2023-04-17T06:27:12.099Z,82.42
2023-04-17T06:30:22.530Z,81.22
2023-04-17T06:33:35.227Z,80.35
2023-04-17T06:36:46.364Z,81.11
2023-04-17T06:39:57.325Z,79.60
2023-04-17T06:43:07.491Z,79.09
2023-04-17T06:46:20.430Z,79.19
2023-04-17T06:49:29.294Z,79.57
2023-04-17T06:52:37.896Z,79.25
2023-04-17T06:55:46.787Z,78.86
2023-04-17T06:58:57.993Z,79.32
2023-04-17T07:02:07.080Z,80.31
2023-04-17T07:05:15.943Z,79.37
2023-04-17T07:08:24.215Z,79.07
2023-04-17T07:11:34.762Z,79.04
2023-04-17T07:14:48.594Z,78.44
2023-04-17T07:18:01.284Z,78.40
2023-04-17T07:21:10.307Z,78.52
2023-04-17T07:24:19.173Z,79.59
2023-04-17T07:27:28.164Z,78.60
2023-04-17T07:34:14.217Z,79.05
2023-04-17T07:37:22.564Z,79.39
2023-04-17T07:40:33.500Z,79.77
2023-04-17T07:43:42.093Z,78.84
2023-04-17T07:46:50.446Z,79.35
2023-04-17T07:50:01.893Z,79.02
2023-04-17T07:53:10.143Z,79.19
2023-04-17T07:56:18.547Z,79.92
2023-04-17T07:59:29.753Z,79.69
2023-04-17T08:02:38.341Z,79.20
2023-04-17T08:05:48.141Z,78.85
2023-04-17T08:08:56.862Z,79.05
2023-04-17T08:12:06.413Z,79.38
2023-04-17T08:15:14.655Z,79.21
2023-04-17T08:18:23.089Z,79.00
2023-04-17T08:21:33.306Z,79.63
2023-04-17T08:24:42.742Z,78.74
2023-04-17T08:27:51.620Z,80.52
2023-04-17T08:31:00.233Z,78.81
2023-04-17T08:34:14.955Z,78.54
2023-04-17T08:37:28.421Z,78.53
2023-04-17T08:40:37.058Z,78.30
2023-04-17T08:43:49.919Z,77.86
2023-04-17T08:46:59.217Z,77.37
2023-04-17T08:50:13.736Z,78.54
2023-04-17T08:53:23.673Z,78.66
2023-04-17T08:56:31.976Z,78.11
2023-04-17T08:59:40.604Z,79.19
2023-04-17T09:02:57.511Z,78.68
2023-04-17T09:06:06.856Z,78.68
2023-04-17T09:09:17.349Z,78.47
2023-04-17T09:12:27.522Z,78.04
2023-04-17T09:15:37.280Z,79.20
2023-04-17T09:18:46.450Z,79.42
2023-04-17T09:21:56.210Z,79.60
2023-04-17T09:25:16.998Z,79.13
2023-04-17T09:28:26.440Z,79.60
2023-04-17T09:31:36.475Z,79.95
2023-04-17T09:34:46.080Z,79.53
2023-04-17T09:37:59.412Z,80.21
2023-04-17T09:41:25.428Z,79.06
2023-04-17T09:44:36.900Z,78.69
2023-04-17T09:47:48.816Z,77.19
2023-04-17T09:50:58.720Z,76.22
2023-04-17T09:54:10.223Z,75.35
2023-04-17T09:57:21.065Z,76.06
2023-04-17T10:00:30.373Z,75.49
2023-04-17T10:03:40.112Z,74.91
2023-04-17T10:06:49.425Z,74.58
2023-04-17T10:09:57.939Z,74.18
2023-04-17T10:13:12.804Z,73.08
2023-04-17T10:16:21.481Z,72.24
2023-04-17T10:19:33.262Z,71.39
2023-04-17T10:22:42.200Z,69.56
2023-04-17T10:25:50.653Z,68.56
2023-04-17T10:29:00.495Z,69.92
2023-04-17T10:32:18.349Z,71.99
2023-04-17T10:35:39.348Z,73.13
2023-04-17T10:38:48.034Z,73.28
2023-04-17T10:42:08.105Z,73.47
2023-04-17T10:45:21.272Z,71.88
2023-04-17T10:48:35.032Z,70.20
2023-04-17T10:51:44.642Z,71.17
2023-04-17T10:55:05.184Z,69.83
2023-04-17T10:58:15.392Z,68.31
2023-04-17T11:01:29.595Z,66.46
2023-04-17T11:04:38.095Z,64.18
2023-04-17T11:07:50.758Z,64.59
2023-04-17T11:10:59.291Z,63.98
2023-04-17T11:14:12.786Z,64.72
2023-04-17T11:17:24.247Z,63.68
2023-04-17T11:20:34.438Z,62.69
2023-04-17T11:23:52.383Z,64.73
2023-04-17T11:27:04.023Z,68.62
2023-04-17T11:30:14.964Z,68.96
2023-04-17T11:33:24.888Z,68.49
2023-04-17T11:36:34.513Z,70.80
2023-04-17T11:39:44.816Z,70.15
2023-04-17T11:42:53.207Z,68.88
2023-04-17T11:46:03.525Z,67.05
2023-04-17T11:49:13.575Z,65.60
2023-04-17T11:52:23.176Z,65.35
2023-04-17T11:55:31.806Z,64.04
2023-04-17T11:58:48.155Z,62.61
2023-04-17T12:01:56.733Z,61.71
2023-04-17T12:05:17.701Z,61.47
2023-04-17T12:08:26.489Z,61.20
2023-04-17T12:11:35.982Z,61.58
2023-04-17T12:14:45.136Z,62.09
2023-04-17T12:17:53.330Z,60.85
2023-04-17T12:21:02.817Z,59.78
2023-04-17T12:24:11.580Z,58.01
2023-04-17T12:27:19.990Z,59.91
2023-04-17T12:30:29.427Z,60.56
2023-04-17T12:33:38.968Z,61.88
2023-04-17T12:36:50.528Z,62.68
2023-04-17T12:39:59.365Z,61.58
2023-04-17T12:43:08.378Z,61.77
2023-04-17T12:46:16.873Z,60.54
2023-04-17T12:49:25.446Z,59.59
2023-04-17T12:52:35.900Z,57.66
2023-04-17T12:55:45.437Z,57.62
2023-04-17T12:58:53.729Z,57.82
2023-04-17T13:02:02.043Z,56.29
2023-04-17T13:05:10.716Z,56.39
2023-04-17T13:08:20.307Z,58.94
2023-04-17T13:11:28.383Z,56.56
2023-04-17T13:14:38.176Z,57.68
2023-04-17T13:17:46.615Z,61.51
2023-04-17T13:20:55.944Z,59.74
2023-04-17T13:24:06.737Z,58.54
2023-04-17T13:27:15.029Z,58.33
2023-04-17T13:30:23.748Z,57.77
2023-04-17T13:33:31.770Z,56.93
2023-04-17T13:36:40.177Z,57.57
2023-04-17T13:43:01.539Z,56.68
2023-04-17T13:46:10.257Z,53.00
2023-04-17T13:49:20.730Z,51.71
2023-04-17T13:52:28.862Z,54.10
2023-04-17T13:55:38.392Z,52.92
2023-04-17T13:58:47.890Z,51.89
2023-04-17T14:01:56.566Z,50.90
2023-04-17T14:05:05.650Z,51.05
2023-04-17T14:08:14.278Z,51.52
2023-04-17T14:11:25.023Z,52.44
2023-04-17T14:14:33.286Z,52.57
2023-04-17T14:17:43.171Z,51.45
2023-04-17T14:20:53.476Z,51.65
2023-04-17T14:24:01.745Z,50.48
2023-04-17T14:27:11.393Z,50.34
2023-04-17T14:30:19.640Z,53.41
2023-04-17T14:33:27.747Z,55.31
2023-04-17T14:36:36.560Z,55.36
2023-04-17T14:39:44.988Z,56.77
2023-04-17T14:42:54.905Z,56.90
2023-04-17T14:46:03.462Z,57.79
2023-04-17T14:49:11.776Z,55.81
2023-04-17T14:52:20.100Z,57.71
2023-04-17T14:55:28.365Z,58.61
2023-04-17T14:58:39.050Z,59.04
2023-04-17T15:01:47.905Z,58.40
2023-04-17T15:04:56.401Z,57.79
2023-04-17T15:08:05.200Z,57.10
2023-04-17T15:11:14.040Z,55.55
2023-04-17T15:14:23.585Z,54.61
2023-04-17T15:17:31.837Z,55.39
2023-04-17T15:20:40.147Z,55.65
2023-04-17T15:23:48.538Z,56.74
2023-04-17T15:26:57.246Z,55.88
2023-04-17T15:30:09.594Z,56.81
2023-04-17T15:33:18.264Z,56.12
2023-04-17T15:36:32.564Z,55.93
2023-04-17T15:39:41.048Z,57.07
2023-04-17T15:42:49.652Z,54.94
2023-04-17T15:46:02.329Z,54.20
2023-04-17T15:49:11.011Z,53.51
2023-04-17T15:52:19.206Z,52.53
2023-04-17T15:55:27.465Z,52.10
2023-04-17T15:58:35.912Z,52.20
2023-04-17T16:01:47.480Z,52.95
2023-04-17T16:04:56.148Z,51.13
2023-04-17T16:08:04.371Z,50.57
2023-04-17T16:11:13.922Z,51.48
2023-04-17T16:14:22.661Z,52.32
2023-04-17T16:17:32.213Z,51.86
2023-04-17T16:20:40.367Z,51.71
2023-04-17T16:23:49.677Z,52.53
2023-04-17T16:27:01.086Z,52.62
2023-04-17T16:30:11.673Z,53.67
2023-04-17T16:33:21.248Z,54.54
2023-04-17T16:36:30.308Z,55.71
2023-04-17T16:39:39.361Z,55.43
2023-04-17T16:42:47.521Z,55.54
2023-04-17T16:45:55.988Z,56.19
2023-04-17T16:49:10.094Z,57.65
2023-04-17T16:52:18.309Z,58.78
2023-04-17T16:55:26.815Z,60.65
2023-04-17T16:58:35.092Z,65.16
2023-04-17T17:01:43.239Z,66.57
2023-04-17T17:04:53.038Z,66.86
2023-04-17T17:08:01.463Z,68.07
2023-04-17T17:11:09.751Z,67.83
2023-04-17T17:14:18.067Z,68.76
2023-04-17T17:17:26.494Z,68.57
2023-04-17T17:20:36.232Z,68.54
2023-04-17T17:23:45.509Z,68.93
2023-04-17T17:26:53.771Z,69.45
2023-04-17T17:30:02.144Z,69.29
2023-04-17T17:33:10.939Z,70.12
2023-04-17T17:36:21.513Z,70.28
2023-04-17T17:39:29.837Z,70.13
2023-04-17T17:42:38.314Z,71.41
2023-04-17T17:45:46.969Z,71.12
2023-04-17T17:48:55.472Z,72.38
2023-04-17T17:52:05.388Z,72.66
2023-04-17T17:55:17.277Z,73.36
2023-04-17T17:58:27.456Z,74.34
2023-04-17T18:01:35.692Z,74.89
2023-04-17T18:04:44.241Z,74.71
2023-04-17T18:07:54.072Z,75.45
2023-04-17T18:11:03.229Z,75.98
2023-04-17T18:14:11.658Z,76.63
2023-04-17T18:17:19.889Z,76.33
2023-04-17T18:20:28.171Z,77.48
2023-04-17T18:23:37.761Z,78.22
2023-04-17T18:26:45.902Z,78.44
2023-04-17T18:29:54.291Z,78.64
2023-04-17T18:33:02.556Z,78.73
2023-04-17T18:36:11.347Z,78.58
2023-04-17T18:39:21.612Z,78.99
2023-04-17T18:42:29.839Z,79.10
2023-04-17T18:45:38.576Z,79.49
2023-04-17T18:48:46.843Z,79.53
2023-04-17T18:51:55.094Z,79.23
2023-04-17T18:55:07.287Z,80.34
2023-04-17T18:58:15.624Z,79.97
2023-04-17T19:01:24.004Z,80.50
2023-04-17T19:04:32.295Z,80.28
2023-04-17T19:07:40.868Z,80.06
2023-04-17T19:10:51.632Z,79.94
2023-04-17T19:13:59.759Z,79.52
2023-04-17T19:17:07.967Z,79.07
2023-04-17T19:20:16.983Z,78.67
2023-04-17T19:23:25.953Z,79.24
2023-04-17T19:26:36.917Z,79.31
2023-04-17T19:29:45.363Z,79.61
2023-04-17T19:32:53.635Z,80.39
2023-04-17T19:36:02.958Z,80.72
2023-04-17T19:39:11.653Z,80.22
2023-04-17T19:42:21.459Z,80.48
2023-04-17T19:45:29.934Z,80.45
2023-04-17T19:48:38.886Z,80.49
2023-04-17T19:51:47.507Z,79.42
2023-04-17T19:54:55.766Z,80.39
2023-04-17T19:58:05.246Z,80.50
2023-04-17T20:01:13.614Z,81.61
2023-04-17T20:04:22.017Z,82.46
2023-04-17T20:07:31.083Z,83.15
2023-04-17T20:10:39.815Z,83.34
2023-04-17T20:13:51.670Z,83.57
2023-04-17T20:17:00.371Z,83.76
2023-04-17T20:20:10.385Z,82.99
2023-04-17T20:23:18.942Z,82.81
2023-04-17T20:26:27.166Z,82.90
2023-04-17T20:29:36.876Z,82.82
2023-04-17T20:32:46.074Z,82.54
2023-04-17T20:35:54.419Z,82.11
2023-04-17T20:39:02.567Z,82.11
2023-04-17T20:42:12.159Z,80.67
2023-04-17T20:45:22.404Z,80.70
2023-04-17T20:48:31.009Z,80.96
2023-04-17T20:51:39.548Z,81.62
2023-04-17T20:54:47.944Z,82.05
2023-04-17T20:57:56.042Z,83.68
2023-04-17T21:01:05.984Z,83.94
2023-04-17T21:04:14.389Z,84.08
2023-04-17T21:07:22.797Z,85.02
2023-04-17T21:10:31.076Z,84.51
2023-04-17T21:13:39.274Z,84.25
2023-04-17T21:16:54.528Z,83.79
2023-04-17T21:20:05.373Z,83.21
2023-04-17T21:23:14.078Z,83.23
2023-04-17T21:26:22.274Z,84.69
2023-04-17T21:29:30.695Z,84.60
2023-04-17T21:32:42.225Z,84.46
2023-04-17T21:35:51.089Z,84.45
2023-04-17T21:38:59.677Z,85.07
2023-04-17T21:42:09.749Z,84.76
2023-04-17T21:45:18.112Z,85.58
2023-04-17T21:48:29.118Z,85.33
2023-04-17T21:51:37.447Z,85.27
2023-04-17T21:54:45.943Z,84.34
2023-04-17T21:57:54.230Z,84.66
2023-04-17T22:01:07.785Z,85.02
2023-04-17T22:04:17.353Z,85.06
2023-04-17T22:07:25.452Z,85.44
2023-04-17T22:10:33.849Z,84.69
2023-04-17T22:13:42.846Z,85.18
2023-04-17T22:16:50.960Z,85.91
2023-04-17T22:20:01.020Z,85.77
2023-04-17T22:23:09.266Z,85.20
2023-04-17T22:26:17.416Z,85.26
2023-04-17T22:29:25.503Z,84.65
2023-04-17T22:32:36.055Z,84.92
2023-04-17T22:35:45.858Z,85.32
2023-04-17T22:38:54.274Z,86.10
2023-04-17T22:42:02.718Z,86.24
2023-04-17T22:45:11.382Z,86.33
2023-04-17T22:48:19.734Z,86.29
2023-04-17T22:51:31.196Z,86.67
2023-04-17T22:54:39.508Z,86.48
2023-04-17T22:57:47.855Z,86.51
2023-04-17T23:00:56.387Z,86.50
2023-04-17T23:04:05.021Z,86.25
2023-04-17T23:07:14.679Z,86.72
2023-04-17T23:10:22.987Z,86.81
2023-04-17T23:13:31.877Z,86.66
2023-04-17T23:16:40.390Z,87.71
2023-04-17T23:19:48.647Z,87.82
2023-04-17T23:22:58.321Z,87.17
2023-04-17T23:26:06.520Z,87.74
2023-04-17T23:29:14.842Z,88.11
2023-04-17T23:32:23.650Z,87.65
2023-04-17T23:35:32.111Z,88.00
2023-04-17T23:38:42.002Z,88.26
2023-04-17T23:41:50.395Z,87.62
2023-04-17T23:44:58.632Z,87.62
2023-04-17T23:48:07.165Z,87.92
2023-04-17T23:51:15.453Z,86.92
2023-04-17T23:54:26.041Z,87.51
2023-04-17T23:57:37.705Z,87.28
